createdAt,value
2022-12-31T00:01:29.506Z,49.80
2022-12-31T00:03:56.933Z,54.60
2022-12-31T00:06:28.130Z,57.80
2022-12-31T00:08:56.921Z,49.50
2022-12-31T00:11:25.291Z,57.70
2022-12-31T00:13:52.872Z,52.60
2022-12-31T00:16:24.375Z,54.10
2022-12-31T00:18:55.976Z,55.60
2022-12-31T00:21:22.534Z,53.60
2022-12-31T00:23:49.255Z,53.40
2022-12-31T00:26:20.242Z,53.10
2022-12-31T00:28:48.036Z,49.40
2022-12-31T00:31:17.999Z,49.80
2022-12-31T00:33:45.409Z,62.10
2022-12-31T00:36:15.798Z,61.90
2022-12-31T00:38:45.563Z,62.80
2022-12-31T00:41:13.182Z,60.20
2022-12-31T00:43:39.661Z,62.30
2022-12-31T00:46:06.797Z,63.30
2022-12-31T00:48:34.702Z,73.90
2022-12-31T00:51:03.835Z,57.60
2022-12-31T00:53:30.519Z,44.70
2022-12-31T00:56:14.407Z,46.70
2022-12-31T00:58:40.961Z,48.70
2022-12-31T01:01:12.599Z,48.00
2022-12-31T01:03:39.133Z,53.30
2022-12-31T01:06:06.263Z,51.00
2022-12-31T01:08:32.950Z,50.20
2022-12-31T01:11:20.295Z,52.20
2022-12-31T01:13:52.052Z,60.00
2022-12-31T01:16:22.616Z,56.00
2022-12-31T01:18:50.218Z,52.10
2022-12-31T01:21:17.865Z,60.20
2022-12-31T01:23:44.649Z,55.40
2022-12-31T01:26:13.676Z,59.50
2022-12-31T01:28:40.717Z,62.40
2022-12-31T01:31:10.762Z,61.70
2022-12-31T01:33:38.060Z,68.00
2022-12-31T01:36:08.358Z,77.20
2022-12-31T01:38:35.963Z,77.80
2022-12-31T01:41:03.696Z,96.90
2022-12-31T01:44:08.393Z,93.30
2022-12-31T01:46:41.229Z,87.20
2022-12-31T01:49:18.707Z,79.00
2022-12-31T01:51:50.039Z,70.40
2022-12-31T01:54:20.497Z,68.40
2022-12-31T01:56:49.407Z,63.60
2022-12-31T01:59:18.141Z,62.00
2022-12-31T02:01:47.594Z,62.90
2022-12-31T02:04:15.660Z,60.90
2022-12-31T02:06:50.541Z,61.70
2022-12-31T02:09:19.138Z,58.10
2022-12-31T02:11:45.577Z,65.40
2022-12-31T02:14:16.643Z,70.60
2022-12-31T02:17:05.047Z,66.60
2022-12-31T02:20:00.196Z,68.90
2022-12-31T02:22:57.094Z,74.60
2022-12-31T02:25:51.955Z,74.30
2022-12-31T02:28:57.421Z,71.50
2022-12-31T02:31:32.234Z,74.20
2022-12-31T02:34:36.692Z,75.60
2022-12-31T02:37:09.052Z,76.40
2022-12-31T02:39:36.607Z,77.10
2022-12-31T02:42:03.308Z,76.80
2022-12-31T02:44:33.701Z,77.20
2022-12-31T02:47:26.220Z,85.70
2022-12-31T02:50:28.852Z,87.40
2022-12-31T02:53:18.908Z,63.90
2022-12-31T02:55:57.125Z,74.70
2022-12-31T02:59:09.127Z,69.20
2022-12-31T03:01:59.461Z,76.70
2022-12-31T03:04:35.531Z,60.90
2022-12-31T03:07:08.175Z,55.30
2022-12-31T03:09:36.019Z,42.60
2022-12-31T03:12:20.020Z,46.40
2022-12-31T03:14:46.977Z,51.60
2022-12-31T03:17:13.838Z,44.00
2022-12-31T03:20:00.485Z,54.20
2022-12-31T03:22:27.340Z,59.30
2022-12-31T03:25:30.790Z,51.90
2022-12-31T03:27:58.214Z,50.90
2022-12-31T03:30:25.373Z,48.50
2022-12-31T03:32:52.666Z,49.60
2022-12-31T03:35:20.626Z,49.50
2022-12-31T03:37:48.010Z,47.70
2022-12-31T03:40:16.160Z,40.10
2022-12-31T03:42:42.517Z,46.10
2022-12-31T03:45:10.218Z,49.70
2022-12-31T03:47:36.805Z,59.40
2022-12-31T03:50:05.231Z,53.50
2022-12-31T03:52:31.740Z,58.90
2022-12-31T03:54:58.169Z,55.20
2022-12-31T03:57:24.882Z,54.90
2022-12-31T03:59:51.375Z,61.70
2022-12-31T04:02:20.871Z,57.40
2022-12-31T04:04:49.685Z,61.70
2022-12-31T04:07:16.340Z,64.00
2022-12-31T04:09:43.090Z,59.30
2022-12-31T04:12:09.531Z,63.50
2022-12-31T04:14:36.009Z,60.00
2022-12-31T04:17:02.648Z,57.90
2022-12-31T04:19:29.156Z,63.20
2022-12-31T04:21:55.602Z,62.90
2022-12-31T04:24:22.279Z,59.30
2022-12-31T04:26:49.213Z,64.50
2022-12-31T04:29:15.628Z,59.10
2022-12-31T04:31:42.156Z,52.60
2022-12-31T04:34:08.869Z,47.50
2022-12-31T04:36:35.309Z,54.10
2022-12-31T04:39:01.756Z,50.30
2022-12-31T04:41:28.285Z,51.60
2022-12-31T04:43:57.895Z,49.20
2022-12-31T04:46:27.083Z,48.10
2022-12-31T04:48:54.035Z,50.00
2022-12-31T04:51:21.193Z,46.30
2022-12-31T04:53:48.726Z,47.00
2022-12-31T04:56:16.062Z,42.80
2022-12-31T04:58:44.325Z,48.90
2022-12-31T05:01:12.183Z,48.60
2022-12-31T05:03:39.323Z,49.70
2022-12-31T05:06:10.133Z,43.70
2022-12-31T05:08:36.751Z,53.50
2022-12-31T05:11:03.437Z,52.90
2022-12-31T05:13:33.337Z,49.60
2022-12-31T05:16:01.519Z,51.80
2022-12-31T05:18:29.075Z,53.10
2022-12-31T05:20:55.858Z,53.30
2022-12-31T05:23:23.714Z,56.10
2022-12-31T05:25:50.812Z,61.10
2022-12-31T05:28:17.969Z,60.50
2022-12-31T05:30:47.104Z,53.70
2022-12-31T05:33:13.582Z,60.50
2022-12-31T05:35:40.007Z,57.50
2022-12-31T05:38:07.214Z,60.10
2022-12-31T05:40:33.692Z,57.50
2022-12-31T05:43:00.049Z,60.20
2022-12-31T05:45:30.789Z,62.00
2022-12-31T05:47:57.740Z,58.00
2022-12-31T05:50:24.600Z,54.80
2022-12-31T05:52:55.125Z,55.80
2022-12-31T05:55:22.291Z,49.80
2022-12-31T05:57:48.671Z,54.20
2022-12-31T06:00:15.553Z,53.70
2022-12-31T06:02:42.152Z,49.90
2022-12-31T06:05:09.639Z,50.70
2022-12-31T06:07:36.190Z,49.60
2022-12-31T06:10:04.795Z,47.90
2022-12-31T06:12:31.236Z,45.60
2022-12-31T06:14:57.754Z,49.10
2022-12-31T06:17:24.276Z,55.00
2022-12-31T06:19:50.728Z,63.00
2022-12-31T06:22:17.226Z,60.30
2022-12-31T06:24:43.691Z,61.00
2022-12-31T06:27:10.276Z,62.10
2022-12-31T06:29:36.823Z,56.70
2022-12-31T06:32:03.441Z,62.20
2022-12-31T06:34:29.836Z,61.80
2022-12-31T06:36:56.268Z,60.60
2022-12-31T06:39:22.830Z,57.50
2022-12-31T06:41:49.325Z,60.40
2022-12-31T06:44:15.929Z,60.30
2022-12-31T06:46:42.404Z,61.10
2022-12-31T06:49:09.047Z,64.20
2022-12-31T06:51:35.564Z,61.70
2022-12-31T06:54:01.908Z,62.40
2022-12-31T06:56:34.322Z,62.00
2022-12-31T06:59:02.363Z,58.80
2022-12-31T07:02:00.858Z,58.70
2022-12-31T07:05:03.715Z,55.00
2022-12-31T07:07:47.731Z,52.00
2022-12-31T07:10:39.465Z,51.60
2022-12-31T07:13:27.600Z,51.10
2022-12-31T07:16:09.561Z,56.20
2022-12-31T07:18:54.517Z,54.10
2022-12-31T07:21:32.870Z,56.10
2022-12-31T07:23:59.663Z,53.50
2022-12-31T07:26:56.757Z,54.70
2022-12-31T07:32:22.239Z,64.60
2022-12-31T07:35:06.207Z,62.60
2022-12-31T07:37:46.733Z,65.80
2022-12-31T07:40:24.086Z,59.50
2022-12-31T07:43:09.978Z,70.10
2022-12-31T07:45:47.295Z,60.90
2022-12-31T07:48:22.441Z,72.90
2022-12-31T07:50:50.726Z,72.00
2022-12-31T07:53:17.497Z,68.40
2022-12-31T07:55:43.994Z,69.80
2022-12-31T07:58:20.787Z,69.70
2022-12-31T08:00:47.942Z,71.90
2022-12-31T08:03:35.141Z,76.10
2022-12-31T08:08:53.166Z,67.20
2022-12-31T08:11:31.213Z,68.60
2022-12-31T08:14:01.019Z,68.10
2022-12-31T08:16:29.044Z,59.30
2022-12-31T08:18:55.974Z,74.60
2022-12-31T08:21:43.100Z,69.40
2022-12-31T08:24:38.741Z,71.40
2022-12-31T08:27:20.308Z,66.60
2022-12-31T08:30:16.467Z,62.90
2022-12-31T08:33:09.306Z,73.60
2022-12-31T08:36:09.302Z,60.10
2022-12-31T08:38:55.881Z,63.20
2022-12-31T08:41:29.476Z,63.80
2022-12-31T08:44:16.374Z,63.40
2022-12-31T08:46:56.391Z,119.70
2022-12-31T08:49:26.746Z,98.70
2022-12-31T08:51:53.712Z,80.40
2022-12-31T08:54:20.788Z,67.20
2022-12-31T08:57:10.118Z,69.80
2022-12-31T08:59:54.946Z,68.90
2022-12-31T09:02:43.215Z,68.70
2022-12-31T09:05:44.952Z,72.50
2022-12-31T09:08:29.779Z,69.70
2022-12-31T09:11:09.759Z,70.00
2022-12-31T09:14:01.680Z,66.90
2022-12-31T09:16:48.011Z,71.90
2022-12-31T09:19:16.954Z,67.90
2022-12-31T09:21:44.507Z,65.00
2022-12-31T09:24:15.927Z,68.40
2022-12-31T09:27:02.503Z,66.40
2022-12-31T09:30:03.308Z,69.50
2022-12-31T09:32:49.336Z,67.10
2022-12-31T09:35:34.802Z,77.60
2022-12-31T09:38:23.064Z,73.90
2022-12-31T09:41:05.722Z,72.10
2022-12-31T09:44:04.402Z,65.80
2022-12-31T09:47:03.597Z,65.60
2022-12-31T09:49:52.306Z,63.50
2022-12-31T09:52:33.106Z,67.90
2022-12-31T09:55:33.768Z,64.90
2022-12-31T09:58:34.328Z,67.90
2022-12-31T10:01:23.986Z,63.70
2022-12-31T10:04:24.693Z,62.50
2022-12-31T10:07:10.038Z,57.80
2022-12-31T10:10:02.031Z,62.10
2022-12-31T10:13:01.128Z,66.20
2022-12-31T10:16:05.459Z,65.70
2022-12-31T10:18:51.591Z,61.60
2022-12-31T10:21:36.001Z,59.30
2022-12-31T10:24:28.474Z,56.10
2022-12-31T10:27:13.459Z,60.20
2022-12-31T10:29:57.446Z,54.50
2022-12-31T10:32:50.338Z,63.80
2022-12-31T10:35:53.110Z,59.80
2022-12-31T10:38:32.075Z,60.90
2022-12-31T10:41:30.491Z,64.30
2022-12-31T10:44:26.636Z,65.10
2022-12-31T10:47:20.968Z,72.50
2022-12-31T10:50:17.716Z,67.90
2022-12-31T10:53:17.554Z,67.10
2022-12-31T10:56:20.133Z,64.20
2022-12-31T10:59:17.961Z,69.40
2022-12-31T11:01:58.487Z,67.80
2022-12-31T11:04:51.984Z,71.80
2022-12-31T11:07:48.510Z,66.00
2022-12-31T11:10:42.083Z,63.80
2022-12-31T11:13:38.854Z,68.70
2022-12-31T11:16:30.937Z,63.30
2022-12-31T11:19:13.866Z,63.70
2022-12-31T11:22:08.812Z,62.10
2022-12-31T11:25:01.184Z,67.80
2022-12-31T11:27:59.729Z,59.10
2022-12-31T11:31:05.826Z,62.50
2022-12-31T11:34:00.331Z,62.20
2022-12-31T11:36:59.336Z,57.20
2022-12-31T11:39:53.468Z,60.70
2022-12-31T11:42:32.037Z,61.40
2022-12-31T11:45:14.161Z,60.70
2022-12-31T11:48:29.797Z,66.30
2022-12-31T11:51:09.654Z,60.90
2022-12-31T11:54:00.745Z,65.00
2022-12-31T11:56:39.804Z,62.10
2022-12-31T11:59:19.062Z,57.70
2022-12-31T12:01:58.935Z,66.50
2022-12-31T12:04:25.755Z,66.30
2022-12-31T12:06:52.784Z,63.90
2022-12-31T12:09:27.931Z,64.00
2022-12-31T12:12:04.711Z,61.80
2022-12-31T12:14:35.937Z,64.90
2022-12-31T12:17:07.411Z,71.60
2022-12-31T12:19:40.666Z,69.30
2022-12-31T12:22:22.232Z,73.60
2022-12-31T12:25:07.210Z,74.70
2022-12-31T12:27:36.386Z,67.70
2022-12-31T12:30:17.215Z,72.70
2022-12-31T12:32:53.404Z,76.30
2022-12-31T12:35:26.213Z,68.30
2022-12-31T12:38:03.798Z,63.40
2022-12-31T12:40:34.308Z,66.00
2022-12-31T12:43:02.887Z,68.60
2022-12-31T12:45:52.361Z,72.40
2022-12-31T12:48:30.407Z,64.90
2022-12-31T12:50:57.110Z,61.90
2022-12-31T12:53:45.137Z,60.70
2022-12-31T12:56:26.832Z,57.00
2022-12-31T12:59:26.991Z,50.20
2022-12-31T13:02:15.947Z,51.60
2022-12-31T13:05:08.926Z,60.60
2022-12-31T13:07:52.069Z,51.40
2022-12-31T13:10:46.093Z,51.10
2022-12-31T13:13:33.217Z,52.60
2022-12-31T13:16:17.983Z,50.40
2022-12-31T13:19:01.677Z,48.20
2022-12-31T13:21:43.638Z,51.00
2022-12-31T13:24:46.304Z,49.00
2022-12-31T13:27:26.451Z,54.20
2022-12-31T13:29:58.478Z,47.90
2022-12-31T13:32:41.643Z,49.40
2022-12-31T13:35:26.417Z,51.90
2022-12-31T13:38:05.301Z,48.80
2022-12-31T13:40:45.964Z,52.20
2022-12-31T13:43:25.033Z,49.60
2022-12-31T13:46:03.753Z,51.10
2022-12-31T13:48:39.865Z,51.90
2022-12-31T13:51:17.461Z,54.20
2022-12-31T13:53:56.057Z,51.30
2022-12-31T13:56:26.863Z,51.30
2022-12-31T13:59:02.895Z,50.80
2022-12-31T14:01:43.161Z,49.70
2022-12-31T14:04:16.815Z,48.10
2022-12-31T14:07:12.140Z,51.00
2022-12-31T14:09:38.793Z,52.90
2022-12-31T14:12:20.685Z,50.90
2022-12-31T14:15:13.836Z,56.90
2022-12-31T14:17:49.891Z,56.40
2022-12-31T14:20:33.017Z,56.60
2022-12-31T14:23:17.693Z,60.50
2022-12-31T14:25:50.694Z,57.70
2022-12-31T14:28:23.287Z,58.10
2022-12-31T14:30:57.447Z,57.30
2022-12-31T14:33:37.190Z,55.50
2022-12-31T14:36:19.161Z,51.50
2022-12-31T14:39:25.403Z,53.10
2022-12-31T14:42:10.556Z,49.20
2022-12-31T14:45:02.229Z,50.10
2022-12-31T14:47:43.597Z,50.40
2022-12-31T14:50:15.190Z,47.60
2022-12-31T14:52:52.928Z,52.90
2022-12-31T14:55:25.912Z,50.30
2022-12-31T14:58:26.324Z,53.10
2022-12-31T15:00:50.695Z,55.30
2022-12-31T15:03:25.282Z,48.20
2022-12-31T15:06:14.407Z,52.60
2022-12-31T15:09:07.610Z,54.50
2022-12-31T15:11:45.538Z,49.00
2022-12-31T15:14:37.831Z,50.20
2022-12-31T15:17:34.341Z,56.30
2022-12-31T15:20:34.730Z,49.80
2022-12-31T15:23:01.634Z,51.30
2022-12-31T15:25:41.373Z,47.30
2022-12-31T15:28:29.155Z,49.00
2022-12-31T15:31:04.172Z,50.60
2022-12-31T15:33:38.596Z,47.40
2022-12-31T15:36:16.339Z,51.20
2022-12-31T15:38:43.846Z,47.60
2022-12-31T15:41:25.838Z,52.20
2022-12-31T15:44:06.871Z,49.80
2022-12-31T15:46:41.375Z,56.10
2022-12-31T15:49:16.277Z,50.40
2022-12-31T15:51:47.772Z,49.50
2022-12-31T15:54:34.367Z,47.50
2022-12-31T15:57:07.187Z,48.30
2022-12-31T15:59:37.471Z,45.30
2022-12-31T16:02:04.178Z,50.10
2022-12-31T16:04:33.994Z,47.50
2022-12-31T16:07:03.492Z,51.30
2022-12-31T16:09:35.381Z,41.00
2022-12-31T16:12:09.480Z,45.90
2022-12-31T16:14:39.892Z,42.70
2022-12-31T16:17:21.253Z,41.80
2022-12-31T16:19:47.690Z,40.00
2022-12-31T16:22:17.470Z,37.90
2022-12-31T16:25:19.465Z,34.80
2022-12-31T16:27:33.683Z,34.30
2022-12-31T16:30:06.506Z,35.90
2022-12-31T16:32:37.377Z,30.80
2022-12-31T16:35:23.861Z,40.30
2022-12-31T16:38:10.426Z,37.10
2022-12-31T16:43:23.398Z,37.40
2022-12-31T16:45:50.251Z,41.40
2022-12-31T16:48:19.562Z,42.60
2022-12-31T16:50:49.871Z,41.60
2022-12-31T16:53:23.204Z,41.40
2022-12-31T16:55:55.192Z,44.30
2022-12-31T16:58:30.027Z,43.10
2022-12-31T17:01:11.193Z,41.30
2022-12-31T17:03:41.437Z,38.20
2022-12-31T17:06:15.596Z,44.90
2022-12-31T17:08:49.891Z,50.50
2022-12-31T17:11:23.755Z,37.70
2022-12-31T17:13:55.375Z,42.50
2022-12-31T17:16:22.907Z,43.90
2022-12-31T17:18:50.419Z,43.40
2022-12-31T17:21:18.018Z,37.60
2022-12-31T17:23:52.945Z,38.80
2022-12-31T17:26:26.070Z,38.10
2022-12-31T17:28:54.959Z,42.10
2022-12-31T17:31:32.759Z,38.80
2022-12-31T17:34:20.348Z,47.10
2022-12-31T17:36:59.554Z,43.80
2022-12-31T17:39:38.642Z,44.30
2022-12-31T17:42:07.149Z,46.10
2022-12-31T17:44:37.740Z,45.50
2022-12-31T17:47:04.436Z,41.80
2022-12-31T17:49:31.433Z,44.20
2022-12-31T17:51:58.023Z,45.00
2022-12-31T17:54:24.532Z,42.70
2022-12-31T17:56:52.100Z,44.40
2022-12-31T17:59:28.920Z,44.20
2022-12-31T18:02:00.564Z,45.50
2022-12-31T18:04:27.141Z,47.20
2022-12-31T18:06:53.548Z,55.30
2022-12-31T18:09:20.242Z,51.60
2022-12-31T18:11:46.944Z,52.50
2022-12-31T18:14:15.533Z,49.50
2022-12-31T18:16:42.040Z,48.00
2022-12-31T18:19:23.634Z,48.70
2022-12-31T18:22:00.084Z,48.40
2022-12-31T18:24:26.615Z,48.60
2022-12-31T18:26:53.434Z,48.60
2022-12-31T18:29:20.292Z,44.10
2022-12-31T18:32:04.781Z,49.60
2022-12-31T18:34:31.484Z,45.30
2022-12-31T18:36:58.750Z,46.40
2022-12-31T18:39:25.181Z,42.70
2022-12-31T18:41:51.721Z,36.70
2022-12-31T18:44:18.164Z,41.10
2022-12-31T18:46:44.627Z,42.70
2022-12-31T18:49:11.277Z,41.50
2022-12-31T18:51:37.736Z,39.70
2022-12-31T18:54:04.566Z,41.50
2022-12-31T18:56:31.424Z,44.30
2022-12-31T18:58:59.028Z,37.60
2022-12-31T19:01:33.441Z,37.60
2022-12-31T19:04:03.207Z,38.50
2022-12-31T19:06:29.956Z,33.60
2022-12-31T19:08:56.468Z,35.70
2022-12-31T19:11:23.417Z,38.30
2022-12-31T19:13:49.946Z,39.80
2022-12-31T19:16:17.296Z,40.60
2022-12-31T19:18:45.465Z,43.50
2022-12-31T19:21:21.898Z,40.20
2022-12-31T19:23:49.862Z,45.40
2022-12-31T19:26:19.253Z,41.80
2022-12-31T19:28:46.829Z,44.20
2022-12-31T19:31:13.619Z,48.10
2022-12-31T19:33:41.341Z,50.00
2022-12-31T19:36:15.423Z,51.50
2022-12-31T19:38:42.752Z,48.70
2022-12-31T19:41:15.342Z,45.60
2022-12-31T19:43:41.950Z,48.30
2022-12-31T19:46:13.005Z,45.10
2022-12-31T19:48:39.648Z,43.80
2022-12-31T19:51:09.778Z,47.30
2022-12-31T19:53:36.327Z,46.80
2022-12-31T19:56:03.516Z,47.50
2022-12-31T19:58:31.260Z,44.90
2022-12-31T20:01:02.949Z,46.50
2022-12-31T20:03:31.923Z,43.30
2022-12-31T20:06:01.821Z,44.40
2022-12-31T20:08:28.382Z,46.40
2022-12-31T20:10:58.077Z,42.30
2022-12-31T20:13:26.259Z,46.00
2022-12-31T20:15:53.591Z,44.50
2022-12-31T20:18:22.213Z,43.20
2022-12-31T20:20:55.372Z,40.70
2022-12-31T20:23:22.381Z,38.70
2022-12-31T20:26:04.159Z,43.60
2022-12-31T20:28:30.766Z,46.30
2022-12-31T20:30:57.391Z,44.00
2022-12-31T20:33:23.948Z,50.80
2022-12-31T20:35:50.777Z,49.00
2022-12-31T20:38:17.277Z,46.00
2022-12-31T20:40:46.973Z,48.80
2022-12-31T20:43:13.800Z,49.00
2022-12-31T20:45:41.278Z,53.70
2022-12-31T20:48:07.922Z,52.10
2022-12-31T20:50:34.633Z,48.90
2022-12-31T20:53:01.397Z,48.90
2022-12-31T20:55:30.099Z,50.40
2022-12-31T20:57:56.672Z,56.50
2022-12-31T21:00:23.237Z,54.50
2022-12-31T21:02:59.005Z,59.10
2022-12-31T21:05:34.030Z,60.10
2022-12-31T21:08:00.743Z,57.40
2022-12-31T21:10:27.187Z,51.40
2022-12-31T21:12:53.717Z,50.00
2022-12-31T21:15:20.885Z,49.10
2022-12-31T21:17:47.504Z,47.00
2022-12-31T21:20:14.048Z,47.90
2022-12-31T21:22:40.529Z,42.90
2022-12-31T21:25:07.367Z,45.50
2022-12-31T21:27:35.230Z,43.40
2022-12-31T21:30:18.128Z,39.70
2022-12-31T21:32:45.882Z,41.80
2022-12-31T21:35:41.576Z,47.10
2022-12-31T21:38:01.049Z,46.30
2022-12-31T21:40:28.886Z,45.90
2022-12-31T21:42:55.384Z,45.50
2022-12-31T21:45:22.261Z,48.00
2022-12-31T21:47:59.777Z,43.60
2022-12-31T21:50:26.428Z,52.40
2022-12-31T21:52:52.833Z,60.50
2022-12-31T21:55:30.312Z,66.60
2022-12-31T21:58:25.426Z,71.60
2022-12-31T22:01:00.699Z,80.00
2022-12-31T22:03:28.044Z,92.50
2022-12-31T22:06:02.307Z,144.50
2022-12-31T22:08:30.202Z,124.50
2022-12-31T22:10:57.071Z,172.80
2022-12-31T22:13:23.683Z,176.00
2022-12-31T22:15:58.754Z,163.70
2022-12-31T22:18:29.303Z,139.00
2022-12-31T22:21:05.622Z,124.40
2022-12-31T22:23:33.476Z,111.00
2022-12-31T22:26:01.144Z,89.30
2022-12-31T22:28:38.073Z,77.30
2022-12-31T22:31:16.703Z,71.10
2022-12-31T22:33:44.059Z,63.10
2022-12-31T22:36:14.462Z,72.10
2022-12-31T22:38:44.971Z,57.90
2022-12-31T22:41:17.528Z,50.80
2022-12-31T22:43:51.748Z,49.60
2022-12-31T22:46:21.930Z,61.50
2022-12-31T22:48:49.133Z,54.30
2022-12-31T22:51:17.310Z,51.50
2022-12-31T22:53:44.148Z,51.90
2022-12-31T22:56:13.852Z,55.60
2022-12-31T22:58:40.700Z,57.00
2022-12-31T23:01:15.048Z,55.40
2022-12-31T23:03:41.826Z,53.10
2022-12-31T23:06:08.488Z,57.40
2022-12-31T23:08:34.959Z,59.40
2022-12-31T23:11:05.067Z,48.30
2022-12-31T23:13:55.250Z,51.00
2022-12-31T23:16:35.568Z,50.90
2022-12-31T23:19:15.583Z,48.60
2022-12-31T23:21:55.783Z,51.20
2022-12-31T23:24:26.705Z,49.90
2022-12-31T23:26:56.467Z,85.40
2022-12-31T23:29:24.612Z,80.90
2022-12-31T23:31:52.238Z,67.00
2022-12-31T23:34:18.896Z,70.30
2022-12-31T23:36:45.274Z,55.50
2022-12-31T23:39:12.733Z,54.00
2022-12-31T23:41:39.661Z,55.90
2022-12-31T23:44:06.288Z,45.70
2022-12-31T23:46:32.905Z,44.10
2022-12-31T23:48:59.457Z,51.30
2022-12-31T23:51:25.932Z,62.80
2022-12-31T23:53:52.341Z,66.00
2022-12-31T23:56:23.650Z,69.20
2022-12-31T23:58:55.241Z,65.40
